createdAt,value
2023-03-02T00:01:29.303Z,15.57
2023-03-02T00:04:02.863Z,14.50
2023-03-02T00:06:34.138Z,15.05
2023-03-02T00:09:04.837Z,15.88
2023-03-02T00:11:35.780Z,12.02
2023-03-02T00:14:05.553Z,13.45
2023-03-02T00:16:35.439Z,15.73
2023-03-02T00:19:07.668Z,14.35
2023-03-02T00:21:37.294Z,14.50
2023-03-02T00:24:08.127Z,14.95
2023-03-02T00:26:38.303Z,13.57
2023-03-02T00:29:07.941Z,11.57
2023-03-02T00:31:38.064Z,15.88
2023-03-02T00:34:10.360Z,15.68
2023-03-02T00:36:40.512Z,13.95
2023-03-02T00:39:10.194Z,13.75
2023-03-02T00:41:39.896Z,14.63
2023-03-02T00:44:09.506Z,13.88
2023-03-02T00:46:39.138Z,13.80
2023-03-02T00:49:11.605Z,18.58
2023-03-02T00:51:41.220Z,15.57
2023-03-02T00:54:10.905Z,17.75
2023-03-02T00:56:40.590Z,13.85
2023-03-02T00:59:26.663Z,15.98
2023-03-02T01:02:09.730Z,15.75
2023-03-02T01:04:43.890Z,15.70
2023-03-02T01:07:15.549Z,12.20
2023-03-02T01:09:46.437Z,19.92
2023-03-02T01:12:16.057Z,12.77
2023-03-02T01:14:47.365Z,12.50
2023-03-02T01:17:18.172Z,14.98
2023-03-02T01:19:50.541Z,17.60
2023-03-02T01:22:20.650Z,15.65
2023-03-02T01:24:50.321Z,13.85
2023-03-02T01:27:19.900Z,13.35
2023-03-02T01:29:50.756Z,15.10
2023-03-02T01:32:20.398Z,14.23
2023-03-02T01:34:53.457Z,13.77
2023-03-02T01:37:23.400Z,13.82
2023-03-02T01:39:53.120Z,14.27
2023-03-02T01:42:22.800Z,13.75
2023-03-02T01:44:54.210Z,16.48
2023-03-02T01:47:26.188Z,16.13
2023-03-02T01:50:26.694Z,14.43
2023-03-02T01:53:00.525Z,12.75
2023-03-02T01:55:32.816Z,14.80
2023-03-02T01:58:03.421Z,15.68
2023-03-02T02:00:36.137Z,14.85
2023-03-02T02:03:11.488Z,16.30
2023-03-02T02:05:46.504Z,16.23
2023-03-02T02:08:16.652Z,14.88
2023-03-02T02:10:46.402Z,14.55
2023-03-02T02:13:16.072Z,13.07
2023-03-02T02:15:45.693Z,14.10
2023-03-02T02:18:15.306Z,15.27
2023-03-02T02:20:48.877Z,14.43
2023-03-02T02:23:29.064Z,14.32
2023-03-02T02:26:18.600Z,15.00
2023-03-02T02:28:57.790Z,15.05
2023-03-02T02:31:32.809Z,16.95
2023-03-02T02:34:05.847Z,19.10
2023-03-02T02:36:40.575Z,13.73
2023-03-02T02:39:19.283Z,15.25
2023-03-02T02:41:52.651Z,16.30
2023-03-02T02:44:22.528Z,16.17
2023-03-02T02:46:52.188Z,18.73
2023-03-02T02:49:30.766Z,15.88
2023-03-02T02:52:00.675Z,16.67
2023-03-02T02:54:31.751Z,17.58
2023-03-02T02:57:05.743Z,14.93
2023-03-02T02:59:39.993Z,18.42
2023-03-02T03:02:14.178Z,20.52
2023-03-02T03:04:43.903Z,16.10
2023-03-02T03:07:16.644Z,13.80
2023-03-02T03:09:46.456Z,16.02
2023-03-02T03:12:20.485Z,13.95
2023-03-02T03:14:50.691Z,20.58
2023-03-02T03:17:20.273Z,17.38
2023-03-02T03:20:06.671Z,17.08
2023-03-02T03:22:40.248Z,16.85
2023-03-02T03:25:15.623Z,17.13
2023-03-02T03:27:50.436Z,17.65
2023-03-02T03:30:22.296Z,16.80
2023-03-02T03:32:52.362Z,18.63
2023-03-02T03:35:22.342Z,17.83
2023-03-02T03:37:52.359Z,17.20
2023-03-02T03:40:22.957Z,15.25
2023-03-02T03:42:56.181Z,14.23
2023-03-02T03:45:26.056Z,17.27
2023-03-02T03:47:55.683Z,16.20
2023-03-02T03:50:25.386Z,15.15
2023-03-02T03:52:54.999Z,14.13
2023-03-02T03:55:30.199Z,15.13
2023-03-02T03:58:03.021Z,14.10
2023-03-02T04:00:33.132Z,15.38
2023-03-02T04:03:08.787Z,15.98
2023-03-02T04:05:38.600Z,16.48
2023-03-02T04:08:09.042Z,16.65
2023-03-02T04:10:39.712Z,11.40
2023-03-02T04:13:12.327Z,15.55
2023-03-02T04:15:43.957Z,17.65
2023-03-02T04:18:15.181Z,13.43
2023-03-02T04:20:44.865Z,15.30
2023-03-02T04:23:15.548Z,17.70
2023-03-02T04:25:45.592Z,17.15
2023-03-02T04:30:52.317Z,12.10
2023-03-02T04:33:21.931Z,15.18
2023-03-02T04:35:52.289Z,12.40
2023-03-02T04:38:21.874Z,14.60
2023-03-02T04:40:51.781Z,14.57
2023-03-02T04:43:23.991Z,13.45
2023-03-02T04:45:53.656Z,12.02
2023-03-02T04:48:24.375Z,15.93
2023-03-02T04:50:54.006Z,17.23
2023-03-02T04:53:23.621Z,14.27
2023-03-02T04:55:53.258Z,13.65
2023-03-02T04:58:25.430Z,16.70
2023-03-02T05:01:02.122Z,14.88
2023-03-02T05:03:31.752Z,14.88
2023-03-02T05:06:02.284Z,13.70
2023-03-02T05:08:31.940Z,15.10
2023-03-02T05:11:01.548Z,15.65
2023-03-02T05:13:33.725Z,14.43
2023-03-02T05:16:03.735Z,14.63
2023-03-02T05:18:33.336Z,13.38
2023-03-02T05:21:02.944Z,12.60
2023-03-02T05:23:32.526Z,17.13
2023-03-02T05:26:02.506Z,14.05
2023-03-02T05:28:35.070Z,14.00
2023-03-02T05:31:05.106Z,18.60
2023-03-02T05:33:34.736Z,16.92
2023-03-02T05:36:04.475Z,17.58
2023-03-02T05:38:34.598Z,16.95
2023-03-02T05:41:04.221Z,16.73
2023-03-02T05:43:36.432Z,17.63
2023-03-02T05:46:06.187Z,14.35
2023-03-02T05:48:35.818Z,14.07
2023-03-02T05:51:05.539Z,14.48
2023-03-02T05:53:35.122Z,17.40
2023-03-02T05:56:04.716Z,15.93
2023-03-02T05:58:36.903Z,17.38
2023-03-02T06:01:12.256Z,14.20
2023-03-02T06:03:44.551Z,15.43
2023-03-02T06:06:15.130Z,16.33
2023-03-02T06:08:45.263Z,15.77
2023-03-02T06:11:14.887Z,19.17
2023-03-02T06:13:47.165Z,16.95
2023-03-02T06:16:16.936Z,14.48
2023-03-02T06:18:46.853Z,12.70
2023-03-02T06:21:17.112Z,14.40
2023-03-02T06:23:46.707Z,17.02
2023-03-02T06:26:16.719Z,20.92
2023-03-02T06:28:53.301Z,16.33
2023-03-02T06:31:23.566Z,15.45
2023-03-02T06:33:53.495Z,16.23
2023-03-02T06:36:23.321Z,14.82
2023-03-02T06:38:53.393Z,17.00
2023-03-02T06:41:23.363Z,16.92
2023-03-02T06:43:55.542Z,18.77
2023-03-02T06:46:25.141Z,14.60
2023-03-02T06:48:54.884Z,14.77
2023-03-02T06:51:24.524Z,17.13
2023-03-02T06:53:54.140Z,16.92
2023-03-02T06:56:23.848Z,13.93
2023-03-02T06:58:56.021Z,20.50
2023-03-02T07:01:25.702Z,18.08
2023-03-02T07:03:55.361Z,15.85
2023-03-02T07:06:24.978Z,18.98
2023-03-02T07:08:54.610Z,19.92
2023-03-02T07:11:24.386Z,17.63
2023-03-02T07:13:56.841Z,20.85
2023-03-02T07:16:26.481Z,14.18
2023-03-02T07:18:56.166Z,20.42
2023-03-02T07:21:25.753Z,15.65
2023-03-02T07:23:55.363Z,14.25
2023-03-02T07:26:24.924Z,13.52
2023-03-02T07:28:59.383Z,13.18
2023-03-02T07:31:29.160Z,13.50
2023-03-02T07:33:58.817Z,14.52
2023-03-02T07:36:28.987Z,13.43
2023-03-02T07:38:58.560Z,14.13
2023-03-02T07:41:28.123Z,16.98
2023-03-02T07:44:01.111Z,14.95
2023-03-02T07:46:30.859Z,13.52
2023-03-02T07:49:01.100Z,10.93
2023-03-02T07:51:30.905Z,15.13
2023-03-02T07:54:02.874Z,10.93
2023-03-02T07:56:32.569Z,12.52
2023-03-02T07:59:04.810Z,11.73
2023-03-02T08:01:34.786Z,10.48
2023-03-02T08:04:04.602Z,20.50
2023-03-02T08:06:34.166Z,12.50
2023-03-02T08:09:04.881Z,12.45
2023-03-02T08:11:35.182Z,10.45
2023-03-02T08:14:07.577Z,11.00
2023-03-02T08:16:37.448Z,10.85
2023-03-02T08:19:07.134Z,11.25
2023-03-02T08:21:36.762Z,9.63
2023-03-02T08:24:06.884Z,9.90
2023-03-02T08:26:36.450Z,11.05
2023-03-02T08:29:09.372Z,11.02
2023-03-02T08:31:39.186Z,11.10
2023-03-02T08:34:08.791Z,9.60
2023-03-02T08:36:38.386Z,9.77
2023-03-02T08:39:08.006Z,10.52
2023-03-02T08:41:37.611Z,8.90
2023-03-02T08:44:10.052Z,9.88
2023-03-02T08:46:39.638Z,9.20
2023-03-02T08:49:09.275Z,9.70
2023-03-02T08:51:39.002Z,11.57
2023-03-02T08:54:08.678Z,13.80
2023-03-02T08:56:40.263Z,9.18
2023-03-02T08:59:15.085Z,11.30
2023-03-02T09:01:44.898Z,14.07
2023-03-02T09:04:14.599Z,9.48
2023-03-02T09:06:47.454Z,8.90
2023-03-02T09:09:17.858Z,9.57
2023-03-02T09:11:47.831Z,9.48
2023-03-02T09:14:20.021Z,10.93
2023-03-02T09:16:49.677Z,14.40
2023-03-02T09:19:19.242Z,8.82
2023-03-02T09:21:49.879Z,12.30
2023-03-02T09:24:19.487Z,10.15
2023-03-02T09:26:49.081Z,10.75
2023-03-02T09:29:21.236Z,10.10
2023-03-02T09:31:50.867Z,9.02
2023-03-02T09:34:20.546Z,9.82
2023-03-02T09:36:50.242Z,10.77
2023-03-02T09:39:19.785Z,8.02
2023-03-02T09:42:14.602Z,10.73
2023-03-02T09:45:18.963Z,10.00
2023-03-02T09:47:55.330Z,9.18
2023-03-02T09:50:30.447Z,9.88
2023-03-02T09:53:12.258Z,8.57
2023-03-02T09:55:41.908Z,9.23
2023-03-02T09:58:17.853Z,10.48
2023-03-02T10:00:50.639Z,9.00
2023-03-02T10:03:22.594Z,8.05
2023-03-02T10:05:54.080Z,8.55
2023-03-02T10:08:25.988Z,8.43
2023-03-02T10:11:01.568Z,9.93
2023-03-02T10:13:32.520Z,10.63
2023-03-02T10:16:18.251Z,9.35
2023-03-02T10:18:50.229Z,10.10
2023-03-02T10:21:24.972Z,8.85
2023-03-02T10:23:59.096Z,11.13
2023-03-02T10:26:34.657Z,10.98
2023-03-02T10:29:14.477Z,10.13
2023-03-02T10:31:49.706Z,12.38
2023-03-02T10:34:19.555Z,10.07
2023-03-02T10:36:49.803Z,10.88
2023-03-02T10:39:20.484Z,14.60
2023-03-02T10:41:53.756Z,10.88
2023-03-02T10:44:26.027Z,10.45
2023-03-02T10:46:59.257Z,11.35
2023-03-02T10:49:31.217Z,13.00
2023-03-02T10:52:03.383Z,9.35
2023-03-02T10:54:34.063Z,11.30
2023-03-02T10:57:05.953Z,13.18
2023-03-02T10:59:47.054Z,13.07
2023-03-02T11:02:23.496Z,11.93
2023-03-02T11:04:57.992Z,11.90
2023-03-02T11:07:29.006Z,14.02
2023-03-02T11:10:03.183Z,13.52
2023-03-02T11:15:19.749Z,13.20
2023-03-02T11:17:54.509Z,14.60
2023-03-02T11:20:28.378Z,11.82
2023-03-02T11:23:06.763Z,12.63
2023-03-02T11:25:40.190Z,11.75
2023-03-02T11:28:17.162Z,12.98
2023-03-02T11:30:50.310Z,14.40
2023-03-02T11:33:25.060Z,12.85
2023-03-02T11:35:58.266Z,14.00
2023-03-02T11:38:30.746Z,13.57
2023-03-02T11:41:03.160Z,11.45
2023-03-02T11:43:33.116Z,14.40
2023-03-02T11:46:14.020Z,16.95
2023-03-02T11:48:54.569Z,13.15
2023-03-02T11:51:25.777Z,11.90
2023-03-02T11:53:59.336Z,16.50
2023-03-02T11:56:31.361Z,13.60
2023-03-02T11:59:04.722Z,9.15
2023-03-02T12:01:38.018Z,12.45
2023-03-02T12:04:27.314Z,10.60
2023-03-02T12:06:57.230Z,11.02
2023-03-02T12:09:37.175Z,13.73
2023-03-02T12:12:35.381Z,10.82
2023-03-02T12:15:05.586Z,14.18
2023-03-02T12:17:36.923Z,11.02
2023-03-02T12:20:27.060Z,10.00
2023-03-02T12:22:57.318Z,13.77
2023-03-02T12:25:32.051Z,12.60
2023-03-02T12:28:01.632Z,10.90
2023-03-02T12:30:31.715Z,13.75
2023-03-02T12:33:04.714Z,14.73
2023-03-02T12:35:37.808Z,9.07
2023-03-02T12:38:09.196Z,14.48
2023-03-02T12:40:48.200Z,12.90
2023-03-02T12:43:30.795Z,10.82
2023-03-02T12:46:28.601Z,12.32
2023-03-02T12:49:17.547Z,11.88
2023-03-02T12:51:54.191Z,11.82
2023-03-02T12:54:25.587Z,10.32
2023-03-02T12:57:08.792Z,8.68
2023-03-02T12:59:39.378Z,13.45
2023-03-02T13:02:17.211Z,8.93
2023-03-02T13:04:47.251Z,11.02
2023-03-02T13:07:22.614Z,12.98
2023-03-02T13:09:57.231Z,16.63
2023-03-02T13:12:29.588Z,11.02
2023-03-02T13:15:01.238Z,8.77
2023-03-02T13:17:32.841Z,10.85
2023-03-02T13:20:03.592Z,11.70
2023-03-02T13:22:35.897Z,9.13
2023-03-02T13:25:08.301Z,9.95
2023-03-02T13:27:37.908Z,8.30
2023-03-02T13:30:24.913Z,8.88
2023-03-02T13:32:54.692Z,9.30
2023-03-02T13:35:26.727Z,10.25
2023-03-02T13:38:04.606Z,11.10
2023-03-02T13:40:40.031Z,8.55
2023-03-02T13:43:23.735Z,8.68
2023-03-02T13:45:57.793Z,11.13
2023-03-02T13:50:59.416Z,7.75
2023-03-02T13:53:38.254Z,7.43
2023-03-02T13:56:08.566Z,10.02
2023-03-02T13:58:41.040Z,8.75
2023-03-02T14:01:10.819Z,8.60
2023-03-02T14:03:40.567Z,10.32
2023-03-02T14:06:11.142Z,8.73
2023-03-02T14:08:43.409Z,13.32
2023-03-02T14:11:13.814Z,8.40
2023-03-02T14:13:45.222Z,7.38
2023-03-02T14:16:15.503Z,8.48
2023-03-02T14:18:47.560Z,7.40
2023-03-02T14:21:19.019Z,7.50
2023-03-02T14:23:52.655Z,8.73
2023-03-02T14:26:30.640Z,7.25
2023-03-02T14:29:05.692Z,8.25
2023-03-02T14:31:36.153Z,7.95
2023-03-02T14:34:05.974Z,10.38
2023-03-02T14:36:37.065Z,10.98
2023-03-02T14:39:14.076Z,7.15
2023-03-02T14:41:52.932Z,6.68
2023-03-02T14:44:24.079Z,8.23
2023-03-02T14:46:53.682Z,6.05
2023-03-02T14:49:23.368Z,6.57
2023-03-02T14:51:58.785Z,7.20
2023-03-02T14:54:34.362Z,7.75
2023-03-02T14:57:06.267Z,6.78
2023-03-02T14:59:35.851Z,6.32
2023-03-02T15:02:15.859Z,6.80
2023-03-02T15:04:56.599Z,6.63
2023-03-02T15:07:27.308Z,8.75
2023-03-02T15:10:00.366Z,6.80
2023-03-02T15:12:29.991Z,6.57
2023-03-02T15:14:59.659Z,7.32
2023-03-02T15:17:29.522Z,5.97
2023-03-02T15:19:59.141Z,6.95
2023-03-02T15:22:28.731Z,7.53
2023-03-02T15:25:00.954Z,5.72
2023-03-02T15:27:30.525Z,8.05
2023-03-02T15:30:00.107Z,5.13
2023-03-02T15:32:29.770Z,6.97
2023-03-02T15:34:59.394Z,5.07
2023-03-02T15:37:28.979Z,7.72
2023-03-02T15:40:01.257Z,7.30
2023-03-02T15:42:30.872Z,6.88
2023-03-02T15:45:00.506Z,6.22
2023-03-02T15:47:30.092Z,7.57
2023-03-02T15:49:59.704Z,5.80
2023-03-02T15:52:29.351Z,5.45
2023-03-02T15:55:01.564Z,5.22
2023-03-02T15:57:31.182Z,5.70
2023-03-02T16:00:01.207Z,6.60
2023-03-02T16:02:30.967Z,6.53
2023-03-02T16:05:00.576Z,10.27
2023-03-02T16:07:30.267Z,7.78
2023-03-02T16:10:02.487Z,5.97
2023-03-02T16:12:32.056Z,7.40
2023-03-02T16:15:01.720Z,8.82
2023-03-02T16:17:31.404Z,8.82
2023-03-02T16:20:01.057Z,9.02
2023-03-02T16:22:30.693Z,8.65
2023-03-02T16:25:02.881Z,6.85
2023-03-02T16:27:33.080Z,8.52
2023-03-02T16:30:02.640Z,7.65
2023-03-02T16:32:34.074Z,8.60
2023-03-02T16:35:03.672Z,9.95
2023-03-02T16:37:33.323Z,6.15
2023-03-02T16:40:05.502Z,8.55
2023-03-02T16:42:35.138Z,7.65
2023-03-02T16:45:04.967Z,6.90
2023-03-02T16:47:34.586Z,8.68
2023-03-02T16:50:05.189Z,8.68
2023-03-02T16:52:34.951Z,7.20
2023-03-02T16:55:10.621Z,8.45
2023-03-02T16:57:40.269Z,8.05
2023-03-02T17:00:13.980Z,8.93
2023-03-02T17:02:43.553Z,6.50
2023-03-02T17:05:14.233Z,6.28
2023-03-02T17:07:43.829Z,9.32
2023-03-02T17:10:19.673Z,7.45
2023-03-02T17:12:49.280Z,10.23
2023-03-02T17:15:19.144Z,10.52
2023-03-02T17:17:48.728Z,7.00
2023-03-02T17:20:18.869Z,8.85
2023-03-02T17:22:48.512Z,9.05
2023-03-02T17:25:21.047Z,7.45
2023-03-02T17:27:50.711Z,7.95
2023-03-02T17:30:20.950Z,10.60
2023-03-02T17:32:50.578Z,9.38
2023-03-02T17:35:20.164Z,8.75
2023-03-02T17:37:49.808Z,10.02
2023-03-02T17:40:22.325Z,13.98
2023-03-02T17:42:54.537Z,9.15
2023-03-02T17:45:28.072Z,10.45
2023-03-02T17:48:01.371Z,12.88
2023-03-02T17:50:31.873Z,11.53
2023-03-02T17:53:02.278Z,10.80
2023-03-02T17:55:34.583Z,15.48
2023-03-02T17:58:04.272Z,13.65
2023-03-02T18:00:34.008Z,15.60
2023-03-02T18:03:03.688Z,16.08
2023-03-02T18:05:33.371Z,19.65
2023-03-02T18:08:02.968Z,16.70
2023-03-02T18:10:35.162Z,21.30
2023-03-02T18:13:04.748Z,15.10
2023-03-02T18:15:34.551Z,20.92
2023-03-02T18:18:04.285Z,17.63
2023-03-02T18:20:34.376Z,18.42
2023-03-02T18:23:04.342Z,21.58
2023-03-02T18:25:36.686Z,18.45
2023-03-02T18:28:06.327Z,16.80
2023-03-02T18:30:36.000Z,18.52
2023-03-02T18:33:05.653Z,21.15
2023-03-02T18:35:35.297Z,17.30
2023-03-02T18:38:05.090Z,21.08
2023-03-02T18:40:37.442Z,19.05
2023-03-02T18:43:07.076Z,21.67
2023-03-02T18:45:36.962Z,23.95
2023-03-02T18:48:07.400Z,23.17
2023-03-02T18:50:37.111Z,23.88
2023-03-02T18:53:08.687Z,22.10
2023-03-02T18:55:41.030Z,24.73
2023-03-02T18:58:11.063Z,22.40
2023-03-02T19:00:41.358Z,22.13
2023-03-02T19:03:11.027Z,24.85
2023-03-02T19:05:40.843Z,31.17
2023-03-02T19:08:10.805Z,26.10
2023-03-02T19:10:43.294Z,26.38
2023-03-02T19:13:13.336Z,29.75
2023-03-02T19:15:43.308Z,23.40
2023-03-02T19:18:16.218Z,26.80
2023-03-02T19:20:46.133Z,27.58
2023-03-02T19:23:16.114Z,27.30
2023-03-02T19:25:48.529Z,29.30
2023-03-02T19:28:18.147Z,27.23
2023-03-02T19:30:47.720Z,32.85
2023-03-02T19:33:17.357Z,28.50
2023-03-02T19:35:47.263Z,29.73
2023-03-02T19:38:18.312Z,30.15
2023-03-02T19:40:50.534Z,30.30
2023-03-02T19:43:20.397Z,30.98
2023-03-02T19:45:50.039Z,33.90
2023-03-02T19:48:19.735Z,30.00
2023-03-02T19:50:49.559Z,28.35
2023-03-02T19:53:19.335Z,29.45
2023-03-02T19:55:52.699Z,29.67
2023-03-02T19:58:23.713Z,30.88
2023-03-02T20:00:53.404Z,29.65
2023-03-02T20:03:23.239Z,30.20
2023-03-02T20:05:53.351Z,31.30
2023-03-02T20:08:24.054Z,31.15
2023-03-02T20:10:56.334Z,30.85
2023-03-02T20:13:27.254Z,31.23
2023-03-02T20:15:56.944Z,38.22
2023-03-02T20:18:26.541Z,33.33
2023-03-02T20:20:56.230Z,35.40
2023-03-02T20:23:25.822Z,32.28
2023-03-02T20:25:58.417Z,33.35
2023-03-02T20:28:28.222Z,40.05
2023-03-02T20:30:59.373Z,34.95
2023-03-02T20:33:32.312Z,35.40
2023-03-02T20:36:03.179Z,33.72
2023-03-02T20:38:35.036Z,36.33
2023-03-02T20:41:07.972Z,39.38
2023-03-02T20:43:37.691Z,33.35
2023-03-02T20:46:08.390Z,36.03
2023-03-02T20:48:38.623Z,36.20
2023-03-02T20:51:08.514Z,39.88
2023-03-02T20:53:38.117Z,34.45
2023-03-02T20:56:11.358Z,35.38
2023-03-02T20:58:41.518Z,39.60
2023-03-02T21:01:11.260Z,36.90
2023-03-02T21:03:41.154Z,32.88
2023-03-02T21:06:11.043Z,37.33
2023-03-02T21:08:41.523Z,39.00
2023-03-02T21:11:16.322Z,36.70
2023-03-02T21:13:48.115Z,32.92
2023-03-02T21:16:23.009Z,37.22
2023-03-02T21:18:52.639Z,35.17
2023-03-02T21:21:32.517Z,37.92
2023-03-02T21:24:05.477Z,35.28
2023-03-02T21:26:37.805Z,37.83
2023-03-02T21:29:09.475Z,45.80
2023-03-02T21:31:39.429Z,37.92
2023-03-02T21:34:09.081Z,43.10
2023-03-02T21:36:39.157Z,37.80
2023-03-02T21:39:09.729Z,34.45
2023-03-02T21:41:42.137Z,40.17
2023-03-02T21:44:12.531Z,38.10
2023-03-02T21:46:42.283Z,38.45
2023-03-02T21:49:12.093Z,37.30
2023-03-02T21:51:41.771Z,40.88
2023-03-02T21:54:12.012Z,39.38
2023-03-02T21:56:44.563Z,40.83
2023-03-02T21:59:15.066Z,41.65
2023-03-02T22:01:44.812Z,42.97
2023-03-02T22:04:14.462Z,46.05
2023-03-02T22:06:44.104Z,45.58
2023-03-02T22:09:14.469Z,38.80
2023-03-02T22:11:47.636Z,42.03
2023-03-02T22:14:19.515Z,42.08
2023-03-02T22:16:49.998Z,44.38
2023-03-02T22:19:28.110Z,48.63
2023-03-02T22:21:59.957Z,51.20
2023-03-02T22:24:31.443Z,53.45
2023-03-02T22:27:13.408Z,42.22
2023-03-02T22:29:44.168Z,53.13
2023-03-02T22:32:18.235Z,50.95
2023-03-02T22:34:48.948Z,51.72
2023-03-02T22:37:20.444Z,45.45
2023-03-02T22:39:51.096Z,50.80
2023-03-02T22:42:25.266Z,47.53
2023-03-02T22:45:02.727Z,48.53
2023-03-02T22:47:32.337Z,51.17
2023-03-02T22:50:09.184Z,50.17
2023-03-02T22:52:43.865Z,50.47
2023-03-02T22:55:32.742Z,49.13
2023-03-02T22:58:20.845Z,57.72
2023-03-02T23:00:51.111Z,55.03
2023-03-02T23:03:21.856Z,53.90
2023-03-02T23:05:53.468Z,57.75
2023-03-02T23:08:25.807Z,52.00
2023-03-02T23:10:57.682Z,62.78
2023-03-02T23:13:41.783Z,56.63
2023-03-02T23:16:17.565Z,67.22
2023-03-02T23:18:47.969Z,52.17
2023-03-02T23:21:20.266Z,57.53
2023-03-02T23:23:50.225Z,66.28
2023-03-02T23:26:20.417Z,58.25
2023-03-02T23:28:53.827Z,60.08
2023-03-02T23:31:23.897Z,61.23
2023-03-02T23:33:53.518Z,62.05
2023-03-02T23:36:23.388Z,56.15
2023-03-02T23:38:53.275Z,65.03
2023-03-02T23:41:22.980Z,64.75
2023-03-02T23:43:55.202Z,71.63
2023-03-02T23:46:24.855Z,72.47
2023-03-02T23:48:56.147Z,78.35
2023-03-02T23:51:26.261Z,74.30
2023-03-02T23:53:56.310Z,70.72
2023-03-02T23:56:26.106Z,61.13
2023-03-02T23:58:58.518Z,60.72
